Time;durP1;ratioP1;P1;durP2;ratioP2;P2;SDS_P1;SDS_P2;PMS_P1;PMS_P2;Temp;Humidity;BMP_temperature;BMP_pressure;BME280_temperature;BME280_humidity;BME280_pressure;Samples;Min_cycle;Max_cycle;Signal;HPM_P1;HPM_P2
2023/05/12 00:00:52;;;;;;;;;;;;;;;7.64;56.28;102080.61;107816;1256;72743;-88
2023/05/12 00:03:19;;;;;;;;;;;;;;;7.62;56.43;102080.30;107835;1257;59132;-85
2023/05/12 00:05:46;;;;;;;;;;;;;;;7.59;56.45;102080.87;107995;1254;123585;-85
2023/05/12 00:08:13;;;;;;;;;;;;;;;7.57;56.50;102081.24;108461;1254;72741;-85
2023/05/12 00:10:40;;;;;;;;;;;;;;;7.54;56.68;102084.61;108431;1254;124078;-86
2023/05/12 00:13:08;;;;;;;;;;;;;;;7.52;56.62;102083.23;108133;1254;71393;-87
2023/05/12 00:15:39;;;;;;;;;;;;;;;7.49;56.89;102085.70;108000;1254;59302;-86
2023/05/12 00:18:08;;;;;;;;;;;;;;;7.47;56.86;102088.90;107657;1254;278878;-87
2023/05/12 00:20:37;;;;;;;;;;;;;;;7.45;56.92;102086.48;108048;1254;72569;-87
2023/05/12 00:23:04;;;;;;;;;;;;;;;7.43;57.24;102085.18;107827;1254;124047;-87
2023/05/12 00:25:32;;;;;;;;;;;;;;;7.40;57.12;102085.88;107945;1254;72519;-85
2023/05/12 00:27:59;;;;;;;;;;;;;;;7.37;57.34;102083.80;107807;1254;123494;-86
2023/05/12 00:30:33;;;;;;;;;;;;;;;7.35;57.45;102082.94;107925;1254;59872;-86
2023/05/12 00:33:00;;;;;;;;;;;;;;;7.31;57.43;102086.73;107639;1254;72708;-86
2023/05/12 00:35:28;;;;;;;;;;;;;;;7.28;57.56;102087.95;107551;1254;123368;-85
2023/05/12 00:37:56;;;;;;;;;;;;;;;7.25;57.58;102088.09;107774;1254;72505;-85
2023/05/12 00:40:23;;;;;;;;;;;;;;;7.21;57.71;102083.66;107814;1256;124217;-85
2023/05/12 00:43:03;;;;;;;;;;;;;;;7.18;57.77;102092.61;107936;1256;60939;-85
2023/05/12 00:45:30;;;;;;;;;;;;;;;7.16;57.89;102094.02;107957;1256;72499;-85
2023/05/12 00:47:57;;;;;;;;;;;;;;;7.13;57.96;102093.69;108211;1254;123468;-85
2023/05/12 00:50:24;;;;;;;;;;;;;;;7.11;58.03;102100.88;108392;1254;72776;-84
2023/05/12 00:52:51;;;;;;;;;;;;;;;7.08;58.18;102103.13;108157;1254;123648;-84
2023/05/12 00:55:19;;;;;;;;;;;;;;;7.04;58.26;102104.85;107692;1254;60563;-84
2023/05/12 00:57:46;;;;;;;;;;;;;;;7.02;58.26;102106.42;107542;1254;124294;-84
2023/05/12 01:00:13;;;;;;;;;;;;;;;6.98;58.29;102105.90;107831;1254;66620;-84
2023/05/12 01:02:40;;;;;;;;;;;;;;;6.96;58.36;102108.70;108080;1254;72542;-84
2023/05/12 01:05:08;;;;;;;;;;;;;;;6.94;58.44;102112.06;107633;1254;123487;-84
2023/05/12 01:07:35;;;;;;;;;;;;;;;6.91;58.65;102112.42;107902;1256;58640;-84
2023/05/12 01:10:04;;;;;;;;;;;;;;;6.89;58.59;102112.64;107520;1254;123739;-84
2023/05/12 01:12:38;;;;;;;;;;;;;;;6.87;58.52;102114.79;107755;1254;66112;-84
2023/05/12 01:15:05;;;;;;;;;;;;;;;6.85;58.72;102116.76;107862;1253;72705;-83
2023/05/12 01:17:32;;;;;;;;;;;;;;;6.84;58.80;102116.67;107686;1256;123376;-84
2023/05/12 01:20:00;;;;;;;;;;;;;;;6.82;58.76;102119.70;107692;1254;61423;-84
2023/05/12 01:22:30;;;;;;;;;;;;;;;6.80;59.07;102122.22;107631;1254;123887;-83
2023/05/12 01:24:58;;;;;;;;;;;;;;;6.79;59.10;102122.30;107963;1259;67348;-84
2023/05/12 01:27:26;;;;;;;;;;;;;;;6.77;59.06;102119.91;108095;1254;72569;-83
2023/05/12 01:29:53;;;;;;;;;;;;;;;6.75;59.18;102121.89;107844;1254;124342;-83
2023/05/12 01:32:21;;;;;;;;;;;;;;;6.72;59.18;102127.84;107785;1254;59952;-84
2023/05/12 01:34:49;;;;;;;;;;;;;;;6.70;59.38;102126.65;107662;1256;123416;-84
2023/05/12 01:37:16;;;;;;;;;;;;;;;6.69;59.22;102131.96;107610;1256;67698;-84
2023/05/12 01:39:49;;;;;;;;;;;;;;;6.66;59.33;102133.70;107600;1257;123653;-84
2023/05/12 01:42:16;;;;;;;;;;;;;;;6.63;59.28;102134.38;107892;1254;59668;-84
2023/05/12 01:44:43;;;;;;;;;;;;;;;6.60;59.43;102136.30;107666;1258;60487;-85
2023/05/12 01:47:14;;;;;;;;;;;;;;;6.58;59.55;102134.45;107726;1253;123493;-85
2023/05/12 01:49:41;;;;;;;;;;;;;;;6.56;59.54;102134.70;107877;1253;67367;-85
2023/05/12 01:52:15;;;;;;;;;;;;;;;6.55;59.58;102137.73;107730;1254;123836;-85
2023/05/12 01:54:43;;;;;;;;;;;;;;;6.53;59.59;102141.13;108041;1253;59120;-85
2023/05/12 01:57:16;;;;;;;;;;;;;;;6.51;59.60;102142.19;107778;1254;59660;-85
2023/05/12 01:59:52;;;;;;;;;;;;;;;6.50;59.68;102142.61;107679;1253;123485;-85
2023/05/12 02:02:19;;;;;;;;;;;;;;;6.47;59.76;102146.27;107794;1254;67078;-84
2023/05/12 02:04:47;;;;;;;;;;;;;;;6.43;59.89;102144.70;107780;1253;123403;-85
2023/05/12 02:07:14;;;;;;;;;;;;;;;6.41;59.88;102144.02;108163;1254;60396;-85
2023/05/12 02:09:41;;;;;;;;;;;;;;;6.39;59.81;102148.79;108121;1253;123678;-85
2023/05/12 02:12:08;;;;;;;;;;;;;;;6.37;59.99;102149.17;108361;1254;73877;-84
2023/05/12 02:14:35;;;;;;;;;;;;;;;6.35;59.94;102150.60;108506;1254;67119;-84
2023/05/12 02:17:03;;;;;;;;;;;;;;;6.33;59.89;102151.48;108503;1257;123675;-84
2023/05/12 02:19:31;;;;;;;;;;;;;;;6.31;60.02;102157.30;107967;1256;59440;-84
2023/05/12 02:21:59;;;;;;;;;;;;;;;6.29;60.12;102156.33;107820;1256;123826;-83
2023/05/12 02:24:33;;;;;;;;;;;;;;;6.27;60.13;102154.61;108053;1254;73832;-84
2023/05/12 02:27:11;;;;;;;;;;;;;;;6.26;60.25;102157.63;107675;1254;65816;-84
2023/05/12 02:29:45;;;;;;;;;;;;;;;6.24;60.37;102162.05;107716;1254;123831;-85
2023/05/12 02:32:18;;;;;;;;;;;;;;;6.22;60.17;102160.55;108028;1254;60227;-85
2023/05/12 02:34:46;;;;;;;;;;;;;;;6.21;60.40;102161.69;107713;1254;124453;-85
2023/05/12 02:37:19;;;;;;;;;;;;;;;6.20;60.37;102159.70;107624;1254;73876;-85
2023/05/12 02:39:48;;;;;;;;;;;;;;;6.19;60.52;102162.44;107260;1259;123552;-85
2023/05/12 02:42:17;;;;;;;;;;;;;;;6.18;60.56;102163.95;107766;1253;71424;-87
2023/05/12 02:44:44;;;;;;;;;;;;;;;6.17;60.68;102165.99;107522;1254;60540;-85
2023/05/12 02:47:17;;;;;;;;;;;;;;;6.17;60.61;102168.75;107560;1254;123689;-85
2023/05/12 02:49:54;;;;;;;;;;;;;;;6.17;60.61;102169.13;107905;1254;73872;-85
2023/05/12 02:52:21;;;;;;;;;;;;;;;6.19;60.75;102171.48;107907;1254;123976;-85
2023/05/12 02:54:50;;;;;;;;;;;;;;;6.19;60.76;102168.55;108105;1253;71047;-84
2023/05/12 02:57:17;;;;;;;;;;;;;;;6.22;60.80;102169.43;107674;1254;61122;-85
2023/05/12 02:59:46;;;;;;;;;;;;;;;6.24;60.80;102168.33;107611;1254;123523;-86
2023/05/12 03:02:32;;;;;;;;;;;;;;;6.27;60.82;102170.27;107648;1257;72800;-86
2023/05/12 03:04:59;;;;;;;;;;;;;;;6.30;60.90;102169.64;107276;1254;123402;-86
2023/05/12 03:07:27;;;;;;;;;;;;;;;6.35;60.81;102168.17;107596;1258;73203;-86
2023/05/12 03:09:55;;;;;;;;;;;;;;;6.39;60.91;102167.08;107554;1254;124136;-84
2023/05/12 03:12:34;;;;;;;;;;;;;;;6.45;60.90;102167.25;107742;1254;59441;-84
2023/05/12 03:15:03;;;;;;;;;;;;;;;6.51;60.86;102166.79;107965;1254;72568;-84
2023/05/12 03:17:31;;;;;;;;;;;;;;;6.59;60.86;102161.57;107927;1253;123478;-84
2023/05/12 03:19:58;;;;;;;;;;;;;;;6.69;60.83;102166.52;108078;1254;71417;-83
2023/05/12 03:22:26;;;;;;;;;;;;;;;6.78;60.71;102166.05;108291;1254;123885;-83
2023/05/12 03:24:53;;;;;;;;;;;;;;;6.89;60.76;102169.15;108517;1254;60048;-85
2023/05/12 03:27:20;;;;;;;;;;;;;;;7.03;60.65;102161.30;108224;1255;72204;-85
2023/05/12 03:29:47;;;;;;;;;;;;;;;7.20;60.52;102161.31;108017;1254;123664;-85
2023/05/12 03:32:15;;;;;;;;;;;;;;;7.37;60.50;102162.88;108303;1254;71397;-85
2023/05/12 03:34:42;;;;;;;;;;;;;;;7.64;60.51;102161.35;108344;1255;124371;-85
2023/05/12 03:37:10;;;;;;;;;;;;;;;8.11;60.44;102164.25;108372;1255;59894;-84
2023/05/12 03:39:37;;;;;;;;;;;;;;;9.09;60.95;102163.04;107819;1258;73847;-85
2023/05/12 03:42:05;;;;;;;;;;;;;;;10.75;60.89;102159.98;108039;1254;69009;-84
2023/05/12 03:44:32;;;;;;;;;;;;;;;12.52;59.54;102157.59;108334;1254;73109;-85
2023/05/12 03:46:59;;;;;;;;;;;;;;;14.14;57.71;102154.67;107822;1256;123734;-86
2023/05/12 03:49:29;;;;;;;;;;;;;;;15.58;55.57;102155.12;108249;1254;60161;-85
2023/05/12 03:51:56;;;;;;;;;;;;;;;16.89;53.43;102154.23;107982;1254;124534;-85
2023/05/12 03:54:23;;;;;;;;;;;;;;;18.03;51.55;102151.98;108426;1254;67303;-85
2023/05/12 03:56:56;;;;;;;;;;;;;;;19.12;49.80;102151.63;107821;1256;70751;-85
2023/05/12 03:59:23;;;;;;;;;;;;;;;20.16;47.99;102152.33;107512;1254;124292;-84
2023/05/12 04:01:50;;;;;;;;;;;;;;;21.06;46.28;102150.21;107524;1254;60139;-85
2023/05/12 04:04:18;;;;;;;;;;;;;;;21.97;44.83;102150.08;107580;1254;123894;-85
2023/05/12 04:06:51;;;;;;;;;;;;;;;22.79;43.34;102148.54;107727;1256;67546;-84
2023/05/12 04:09:23;;;;;;;;;;;;;;;23.59;42.03;102148.86;107630;1254;73282;-84
2023/05/12 04:11:51;;;;;;;;;;;;;;;24.43;40.72;102150.87;107619;1254;123657;-85
2023/05/12 04:14:19;;;;;;;;;;;;;;;25.17;39.35;102149.84;107655;1254;58926;-86
2023/05/12 04:16:47;;;;;;;;;;;;;;;25.78;38.03;102150.59;107849;1255;124550;-86
2023/05/12 04:19:15;;;;;;;;;;;;;;;26.35;37.13;102154.11;108099;1254;67383;-86
2023/05/12 04:21:43;;;;;;;;;;;;;;;26.93;36.08;102151.20;107924;1255;124393;-84
2023/05/12 04:24:30;;;;;;;;;;;;;;;27.47;35.20;102156.16;108073;1254;60415;-88
2023/05/12 04:26:57;;;;;;;;;;;;;;;28.11;33.97;102156.42;108219;1254;59145;-86
2023/05/12 04:29:24;;;;;;;;;;;;;;;28.65;33.44;102158.24;108222;1254;124604;-84
2023/05/12 04:31:53;;;;;;;;;;;;;;;29.26;32.42;102159.53;108222;1259;67084;-85
2023/05/12 04:34:20;;;;;;;;;;;;;;;29.73;31.49;102158.06;108052;1254;124475;-83
2023/05/12 04:36:47;;;;;;;;;;;;;;;30.17;30.80;102156.94;108269;1254;58825;-83
2023/05/12 04:39:14;;;;;;;;;;;;;;;30.74;30.09;102157.45;108092;1254;60466;-82
2023/05/12 04:41:42;;;;;;;;;;;;;;;31.32;29.07;102156.52;107716;1255;123949;-84
2023/05/12 04:44:09;;;;;;;;;;;;;;;31.73;28.18;102157.41;107674;1254;59032;-84
2023/05/12 04:46:37;;;;;;;;;;;;;;;32.26;27.58;102157.00;107902;1257;123878;-83
2023/05/12 04:49:04;;;;;;;;;;;;;;;32.78;26.75;102164.32;107705;1254;58612;-84
2023/05/12 04:51:31;;;;;;;;;;;;;;;33.22;26.10;102164.63;107818;1254;59378;-81
2023/05/12 04:53:58;;;;;;;;;;;;;;;33.58;25.39;102162.70;107655;1256;124185;-88
2023/05/12 04:56:31;;;;;;;;;;;;;;;33.86;24.94;102166.59;107409;1256;60824;-88
2023/05/12 04:58:59;;;;;;;;;;;;;;;34.19;24.40;102167.13;107503;1257;123712;-85
2023/05/12 05:01:33;;;;;;;;;;;;;;;34.42;23.76;102171.73;107570;1255;58348;-87
2023/05/12 05:04:05;;;;;;;;;;;;;;;34.70;23.37;102167.52;107559;1257;124019;-89
2023/05/12 05:06:33;;;;;;;;;;;;;;;34.95;22.93;102168.14;107759;1253;65278;-86
2023/05/12 05:09:06;;;;;;;;;;;;;;;35.13;22.36;102169.55;107428;1254;60464;-86
2023/05/12 05:11:35;;;;;;;;;;;;;;;35.22;21.94;102169.44;107500;1257;123949;-86
2023/05/12 05:14:10;;;;;;;;;;;;;;;35.41;21.48;102171.42;107580;1256;60552;-87
2023/05/12 05:16:47;;;;;;;;;;;;;;;35.57;21.13;102171.07;107613;1257;123712;-91
2023/05/12 05:19:31;;;;;;;;;;;;;;;35.67;20.71;102175.27;107612;1254;63627;-89
2023/05/12 05:22:13;;;;;;;;;;;;;;;35.67;20.66;102176.52;107604;1254;123885;-91
2023/05/12 05:24:41;;;;;;;;;;;;;;;35.65;20.47;102178.09;107677;1254;62506;-88
2023/05/12 05:27:20;;;;;;;;;;;;;;;35.64;20.61;102180.69;107598;1256;59210;-89
2023/05/12 05:29:48;;;;;;;;;;;;;;;35.53;20.17;102181.34;107501;1255;122800;-91
2023/05/12 05:32:49;;;;;;;;;;;;;;;34.97;19.63;102182.98;107361;1256;63720;-89
2023/05/12 05:35:16;;;;;;;;;;;;;;;32.24;19.25;102185.27;107556;1256;124066;-89
2023/05/12 05:37:44;;;;;;;;;;;;;;;29.35;19.79;102191.27;107752;1254;64069;-87
2023/05/12 05:40:37;;;;;;;;;;;;;;;26.91;20.98;102192.61;107830;1253;124457;-86
2023/05/12 05:43:04;;;;;;;;;;;;;;;24.88;21.94;102199.00;107711;1255;60097;-88
2023/05/12 05:45:50;;;;;;;;;;;;;;;23.45;22.89;102199.10;107526;1253;72490;-91
2023/05/12 05:48:20;;;;;;;;;;;;;;;22.11;23.88;102204.59;107283;1253;68037;-91
2023/05/12 05:50:53;;;;;;;;;;;;;;;21.13;24.69;102207.01;107723;1254;70612;-90
2023/05/12 05:53:41;;;;;;;;;;;;;;;20.28;25.66;102208.04;107385;1254;124019;-88
2023/05/12 05:56:10;;;;;;;;;;;;;;;19.42;26.49;102206.62;107543;1254;60424;-90
2023/05/12 05:59:01;;;;;;;;;;;;;;;18.87;27.44;102210.55;107614;1256;122931;-90
2023/05/12 06:01:29;;;;;;;;;;;;;;;18.35;28.27;102216.14;107333;1255;65571;-88
2023/05/12 06:04:10;;;;;;;;;;;;;;;17.93;28.68;102221.46;107081;1260;123890;-88
2023/05/12 06:06:39;;;;;;;;;;;;;;;17.54;29.25;102219.82;107500;1254;61401;-90
2023/05/12 06:09:11;;;;;;;;;;;;;;;17.26;29.85;102219.23;107494;1254;59226;-90
2023/05/12 06:11:41;;;;;;;;;;;;;;;17.06;30.31;102227.52;107536;1254;123827;-89
2023/05/12 06:14:16;;;;;;;;;;;;;;;16.82;30.65;102229.09;107402;1254;66835;-89
2023/05/12 06:16:44;;;;;;;;;;;;;;;16.56;31.04;102226.33;107127;1257;123710;-87
2023/05/12 06:19:17;;;;;;;;;;;;;;;16.37;31.45;102228.36;107088;1254;58943;-87
2023/05/12 06:22:22;;;;;;;;;;;;;;;16.20;31.73;102227.06;107521;1257;123827;-86
2023/05/12 06:24:55;;;;;;;;;;;;;;;16.06;31.97;102236.60;107612;1253;73937;-89
2023/05/12 06:27:24;;;;;;;;;;;;;;;15.96;32.34;102238.09;107349;1254;65492;-90
2023/05/12 06:29:51;;;;;;;;;;;;;;;15.88;32.69;102240.92;107364;1254;124031;-91
2023/05/12 06:32:26;;;;;;;;;;;;;;;15.84;33.07;102239.20;107476;1254;59675;-90
2023/05/12 06:35:06;;;;;;;;;;;;;;;15.80;33.40;102240.69;107529;1256;123815;-90
2023/05/12 06:37:35;;;;;;;;;;;;;;;15.77;33.77;102239.19;107713;1254;72379;-90
2023/05/12 06:43:18;;;;;;;;;;;;;;;15.74;34.35;102243.90;108022;1255;72587;-90
2023/05/12 06:45:46;;;;;;;;;;;;;;;15.71;34.46;102245.73;107772;1254;123857;-90
2023/05/12 06:48:20;;;;;;;;;;;;;;;15.68;34.67;102243.15;107761;1254;60585;-91
2023/05/12 06:51:04;;;;;;;;;;;;;;;15.62;34.93;102250.60;107695;1254;72378;-90
2023/05/12 06:53:40;;;;;;;;;;;;;;;15.55;35.08;102250.58;107497;1255;124564;-90
2023/05/12 06:56:22;;;;;;;;;;;;;;;15.51;35.32;102251.15;107482;1256;72460;-91
2023/05/12 06:59:02;;;;;;;;;;;;;;;15.43;35.44;102247.05;107275;1255;123801;-91
2023/05/12 07:01:41;;;;;;;;;;;;;;;15.43;35.55;102247.23;107476;1254;60123;-90
2023/05/12 07:04:15;;;;;;;;;;;;;;;15.43;35.73;102243.84;107452;1254;124558;-91
2023/05/12 07:09:44;;;;;;;;;;;;;;;15.53;36.27;102241.52;107867;1254;72929;-91
2023/05/12 07:12:12;;;;;;;;;;;;;;;15.61;36.53;102245.77;107479;1254;61361;-91
2023/05/12 07:14:45;;;;;;;;;;;;;;;15.67;36.80;102241.20;107390;1257;60133;-91
2023/05/12 07:17:13;;;;;;;;;;;;;;;15.73;36.63;102240.29;107183;1253;123779;-90
2023/05/12 07:19:47;;;;;;;;;;;;;;;15.76;36.84;102239.34;107326;1254;65550;-91
2023/05/12 07:22:31;;;;;;;;;;;;;;;15.82;37.00;102239.52;107255;1254;124235;-90
2023/05/12 07:25:00;;;;;;;;;;;;;;;15.85;37.09;102239.77;107441;1259;60543;-87
2023/05/12 07:27:29;;;;;;;;;;;;;;;15.90;37.28;102239.89;107626;1254;59009;-87
2023/05/12 07:29:59;;;;;;;;;;;;;;;15.97;37.36;102242.73;107685;1254;124028;-87
2023/05/12 07:32:47;;;;;;;;;;;;;;;16.00;37.43;102246.70;107789;1256;65573;-88
2023/05/12 07:35:29;;;;;;;;;;;;;;;16.04;37.52;102243.30;107678;1254;124477;-88
2023/05/12 07:38:04;;;;;;;;;;;;;;;16.10;37.47;102243.25;107690;1254;59578;-88
2023/05/12 07:40:31;;;;;;;;;;;;;;;16.14;37.63;102243.53;107439;1257;124594;-87
2023/05/12 07:43:06;;;;;;;;;;;;;;;16.21;37.55;102246.19;107564;1255;73851;-88
2023/05/12 07:45:48;;;;;;;;;;;;;;;16.29;37.55;102241.79;107869;1256;67518;-88
2023/05/12 07:48:17;;;;;;;;;;;;;;;16.37;37.60;102240.77;107631;1256;73664;-87
2023/05/12 07:50:45;;;;;;;;;;;;;;;16.41;37.61;102238.36;107876;1254;59659;-88
2023/05/12 07:53:12;;;;;;;;;;;;;;;16.44;37.48;102236.14;107640;1256;123956;-86
2023/05/12 07:55:44;;;;;;;;;;;;;;;16.51;37.60;102237.91;107930;1257;73001;-87
2023/05/12 07:58:11;;;;;;;;;;;;;;;16.61;37.54;102234.08;107571;1253;123822;-87
2023/05/12 08:00:44;;;;;;;;;;;;;;;16.71;37.49;102233.95;107738;1254;72154;-87
2023/05/12 08:03:12;;;;;;;;;;;;;;;16.79;37.14;102233.98;107819;1254;60614;-89
2023/05/12 08:05:39;;;;;;;;;;;;;;;16.89;37.32;102232.27;107712;1254;123693;-88
2023/05/12 08:08:08;;;;;;;;;;;;;;;17.03;37.19;102234.20;107870;1255;73590;-88
2023/05/12 08:10:35;;;;;;;;;;;;;;;17.12;37.01;102232.96;107516;1254;123735;-88
2023/05/12 08:13:05;;;;;;;;;;;;;;;17.19;36.95;102232.92;107618;1254;71529;-88
2023/05/12 08:15:39;;;;;;;;;;;;;;;17.23;36.56;102234.96;107522;1254;58427;-90
2023/05/12 08:18:12;;;;;;;;;;;;;;;17.26;36.40;102235.94;107497;1256;124049;-90
2023/05/12 08:20:46;;;;;;;;;;;;;;;17.35;36.29;102237.87;107976;1257;74671;-90
2023/05/12 08:23:21;;;;;;;;;;;;;;;17.40;36.32;102236.39;108028;1257;123979;-90
2023/05/12 08:25:48;;;;;;;;;;;;;;;17.48;36.44;102237.44;107917;1254;71863;-90
2023/05/12 08:28:26;;;;;;;;;;;;;;;17.57;36.32;102237.45;107930;1254;123987;-91
2023/05/12 08:34:40;;;;;;;;;;;;;;;17.72;36.04;102236.67;107822;1254;124550;-90
2023/05/12 08:37:07;;;;;;;;;;;;;;;17.80;35.60;102241.98;107886;1257;66938;-90
2023/05/12 08:39:48;;;;;;;;;;;;;;;17.85;35.38;102238.17;108062;1254;72698;-90
2023/05/12 08:42:37;;;;;;;;;;;;;;;17.90;35.58;102235.27;108103;1257;59209;-90
2023/05/12 08:45:21;;;;;;;;;;;;;;;18.01;35.71;102236.35;107830;1257;60895;-89
2023/05/12 08:47:59;;;;;;;;;;;;;;;18.10;35.27;102239.00;107844;1255;123906;-91
2023/05/12 08:50:26;;;;;;;;;;;;;;;18.17;35.18;102238.95;108063;1254;66819;-88
2023/05/12 08:52:54;;;;;;;;;;;;;;;18.23;34.84;102239.23;107985;1254;123904;-91
2023/05/12 08:55:22;;;;;;;;;;;;;;;18.27;34.69;102235.92;108129;1255;60325;-89
2023/05/12 08:57:49;;;;;;;;;;;;;;;18.31;34.65;102235.27;108142;1254;60398;-89
2023/05/12 09:00:39;;;;;;;;;;;;;;;18.39;34.76;102230.79;108098;1254;74948;-92
2023/05/12 09:03:06;;;;;;;;;;;;;;;18.49;34.53;102231.30;107929;1254;65903;-88
2023/05/12 09:05:33;;;;;;;;;;;;;;;18.55;34.51;102230.34;108205;1254;124073;-88
2023/05/12 09:08:00;;;;;;;;;;;;;;;18.65;34.63;102234.92;108192;1254;60989;-88
2023/05/12 09:10:29;;;;;;;;;;;;;;;18.70;34.17;102231.27;108117;1255;124088;-88
2023/05/12 09:13:13;;;;;;;;;;;;;;;18.74;34.04;102233.63;108055;1255;75132;-89
2023/05/12 09:16:03;;;;;;;;;;;;;;;18.72;33.59;102227.04;108028;1259;65677;-88
2023/05/12 09:19:08;;;;;;;;;;;;;;;18.69;33.47;102219.87;107872;1256;72684;-89
2023/05/12 09:22:00;;;;;;;;;;;;;;;18.72;33.51;102224.36;107720;1255;59174;-91
2023/05/12 09:24:36;;;;;;;;;;;;;;;18.78;33.52;102217.16;107510;1259;60339;-91
2023/05/12 09:27:22;;;;;;;;;;;;;;;18.84;33.19;102220.84;107743;1256;73852;-92
2023/05/12 09:29:53;;;;;;;;;;;;;;;18.84;33.14;102224.21;107876;1256;124597;-89
2023/05/12 09:32:42;;;;;;;;;;;;;;;18.89;33.27;102222.86;107798;1256;73975;-89
2023/05/12 09:35:15;;;;;;;;;;;;;;;18.94;33.16;102219.73;107927;1254;123793;-89
2023/05/12 09:37:42;;;;;;;;;;;;;;;19.01;32.95;102225.35;108185;1254;60033;-89
2023/05/12 09:40:13;;;;;;;;;;;;;;;19.01;32.68;102221.26;107781;1254;123898;-88
2023/05/12 09:43:16;;;;;;;;;;;;;;;19.05;33.14;102217.75;107594;1254;67025;-90
2023/05/12 09:45:51;;;;;;;;;;;;;;;19.17;33.01;102218.09;107568;1260;72394;-91
2023/05/12 09:48:18;;;;;;;;;;;;;;;19.24;32.69;102218.71;107766;1254;60535;-90
2023/05/12 09:50:52;;;;;;;;;;;;;;;19.26;32.61;102219.96;107788;1255;60578;-90
2023/05/12 09:53:21;;;;;;;;;;;;;;;19.28;32.26;102211.46;107697;1256;73607;-90
2023/05/12 09:55:55;;;;;;;;;;;;;;;19.29;32.20;102203.45;107607;1254;68239;-91
2023/05/12 09:58:28;;;;;;;;;;;;;;;19.35;32.31;102203.54;107671;1257;124286;-89
2023/05/12 10:00:55;;;;;;;;;;;;;;;19.42;32.25;102198.63;107818;1256;59205;-90
2023/05/12 10:03:23;;;;;;;;;;;;;;;19.47;32.00;102197.63;108203;1257;60109;-90
2023/05/12 10:05:56;;;;;;;;;;;;;;;19.50;31.83;102195.34;107895;1260;123771;-90
2023/05/12 10:08:34;;;;;;;;;;;;;;;19.44;31.31;102193.48;107979;1257;66042;-90
2023/05/12 10:11:03;;;;;;;;;;;;;;;19.39;31.04;102197.70;107824;1257;123802;-90
2023/05/12 10:13:38;;;;;;;;;;;;;;;19.38;31.11;102196.10;107929;1257;60434;-91
2023/05/12 10:16:08;;;;;;;;;;;;;;;19.45;31.21;102192.80;107712;1260;59546;-92
2023/05/12 10:18:57;;;;;;;;;;;;;;;19.51;31.13;102193.39;107662;1261;73814;-92
2023/05/12 10:21:26;;;;;;;;;;;;;;;19.58;30.99;102195.61;107784;1254;68511;-91
2023/05/12 10:24:00;;;;;;;;;;;;;;;19.60;30.70;102194.20;107649;1254;123759;-92
2023/05/12 10:26:58;;;;;;;;;;;;;;;19.62;30.67;102192.80;107815;1254;60537;-90
2023/05/12 10:29:31;;;;;;;;;;;;;;;19.65;30.76;102189.98;107635;1254;123995;-89
2023/05/12 10:32:00;;;;;;;;;;;;;;;19.72;30.61;102188.45;107873;1260;73958;-89
2023/05/12 10:34:45;;;;;;;;;;;;;;;19.75;30.45;102188.86;107709;1254;124152;-87
2023/05/12 10:37:18;;;;;;;;;;;;;;;19.74;30.16;102188.51;107728;1254;72736;-90
2023/05/12 10:39:51;;;;;;;;;;;;;;;19.71;29.89;102192.55;107729;1253;58778;-87
2023/05/12 10:42:25;;;;;;;;;;;;;;;19.64;29.89;102182.66;107724;1254;124008;-88
2023/05/12 10:44:53;;;;;;;;;;;;;;;19.65;30.15;102189.27;107813;1257;73931;-88
2023/05/12 10:47:45;;;;;;;;;;;;;;;19.68;29.97;102192.32;107649;1260;124126;-88
2023/05/12 10:50:12;;;;;;;;;;;;;;;19.72;30.00;102190.95;107609;1255;72826;-88
2023/05/12 10:52:57;;;;;;;;;;;;;;;19.76;29.95;102192.09;108181;1257;124806;-88
2023/05/12 10:55:40;;;;;;;;;;;;;;;19.81;29.87;102185.36;108164;1254;59191;-89
2023/05/12 10:58:11;;;;;;;;;;;;;;;19.83;29.78;102186.27;107613;1260;73708;-90
2023/05/12 11:00:50;;;;;;;;;;;;;;;19.86;29.64;102185.23;107334;1255;123582;-90
2023/05/12 11:03:24;;;;;;;;;;;;;;;19.89;29.43;102181.70;107565;1254;71197;-90
2023/05/12 11:09:36;;;;;;;;;;;;;;;19.85;28.69;102182.92;107510;1254;60772;-91
2023/05/12 11:12:06;;;;;;;;;;;;;;;19.76;28.64;102180.70;107587;1255;123763;-88
2023/05/12 11:14:38;;;;;;;;;;;;;;;19.73;28.38;102176.56;107777;1254;67052;-87
2023/05/12 11:17:06;;;;;;;;;;;;;;;19.74;28.42;102178.89;107844;1257;123803;-88
2023/05/12 11:19:34;;;;;;;;;;;;;;;19.80;28.42;102180.01;107737;1256;59046;-88
2023/05/12 11:22:08;;;;;;;;;;;;;;;19.87;28.52;102183.81;107868;1254;59510;-87
2023/05/12 11:24:35;;;;;;;;;;;;;;;19.92;28.37;102183.88;107762;1254;124262;-88
2023/05/12 11:27:05;;;;;;;;;;;;;;;19.96;28.30;102173.20;107855;1254;67164;-88
2023/05/12 11:29:32;;;;;;;;;;;;;;;20.02;28.07;102183.41;107432;1254;123831;-88
2023/05/12 11:31:59;;;;;;;;;;;;;;;20.04;27.97;102181.83;107728;1254;60328;-88
2023/05/12 11:34:33;;;;;;;;;;;;;;;20.05;27.90;102179.36;107689;1253;123836;-87
2023/05/12 11:37:02;;;;;;;;;;;;;;;20.05;27.52;102176.32;107616;1257;75469;-87
2023/05/12 11:39:33;;;;;;;;;;;;;;;20.06;27.37;102176.86;107832;1259;67548;-88
2023/05/12 11:42:10;;;;;;;;;;;;;;;20.07;27.35;102182.22;107691;1256;124880;-87
2023/05/12 11:44:45;;;;;;;;;;;;;;;20.10;27.31;102178.15;107483;1254;59492;-87
2023/05/12 11:47:12;;;;;;;;;;;;;;;20.15;27.26;102181.57;107330;1254;123761;-90
2023/05/12 11:50:07;;;;;;;;;;;;;;;20.14;26.66;102180.14;107445;1254;72297;-90
2023/05/12 11:52:34;;;;;;;;;;;;;;;20.09;26.63;102176.53;107630;1253;124113;-90
2023/05/12 12:01:42;;;;;;;;;;;;;;;20.22;26.50;102174.86;107978;1254;60313;-88
2023/05/12 12:04:09;;;;;;;;;;;;;;;20.25;26.60;102175.59;108126;1258;72307;-88
2023/05/12 12:06:42;;;;;;;;;;;;;;;20.27;26.33;102183.98;108001;1254;123751;-88
2023/05/12 12:09:11;;;;;;;;;;;;;;;20.26;26.23;102186.11;108313;1260;70898;-88
2023/05/12 12:11:44;;;;;;;;;;;;;;;20.25;26.17;102179.14;108041;1254;123916;-91
2023/05/12 12:14:43;;;;;;;;;;;;;;;20.27;26.38;102174.88;108039;1258;60423;-92
2023/05/12 12:17:48;;;;;;;;;;;;;;;20.30;26.37;102173.48;100461;1254;10176961;-91
2023/05/12 12:20:17;;;;;;;;;;;;;;;20.30;26.07;102173.85;108062;1254;59655;-91
2023/05/12 12:22:55;;;;;;;;;;;;;;;;;;;;;
2023/05/12 12:25:24;;;;;;;;;;;;;;;20.32;26.27;102173.84;108308;1254;73690;-90
2023/05/12 12:27:52;;;;;;;;;;;;;;;20.40;26.23;102173.02;108320;1254;65846;-87
2023/05/12 12:30:31;;;;;;;;;;;;;;;20.45;26.26;102171.27;107598;1254;123737;-90
2023/05/12 12:33:14;;;;;;;;;;;;;;;20.49;26.00;102172.02;107434;1254;60475;-88
2023/05/12 12:42:37;;;;;;;;;;;;;;;20.48;26.08;102164.16;107300;1259;123581;-87
2023/05/12 12:45:10;;;;;;;;;;;;;;;20.51;26.04;102162.20;107199;1257;72738;-88
2023/05/12 12:47:37;;;;;;;;;;;;;;;20.54;26.24;102159.03;107599;1253;124179;-91
2023/05/12 12:50:06;;;;;;;;;;;;;;;20.55;26.11;102154.40;108234;1254;58882;-84
2023/05/12 12:52:39;;;;;;;;;;;;;;;20.60;26.07;102154.08;108150;1254;124324;-90
2023/05/12 12:55:06;;;;;;;;;;;;;;;20.64;26.07;102155.02;108336;1254;65620;-90
2023/05/12 12:57:33;;;;;;;;;;;;;;;20.65;25.86;102151.28;108194;1254;72491;-90
2023/05/12 13:00:01;;;;;;;;;;;;;;;20.61;25.67;102150.90;108151;1254;123723;-91
2023/05/12 13:02:35;;;;;;;;;;;;;;;20.55;25.73;102143.52;107666;1254;59618;-91
2023/05/12 13:05:04;;;;;;;;;;;;;;;20.53;25.55;102145.48;107362;1254;124693;-90
2023/05/12 13:07:32;;;;;;;;;;;;;;;20.52;25.40;102146.53;107589;1254;65536;-89
2023/05/12 13:10:16;;;;;;;;;;;;;;;20.50;25.33;102144.73;107982;1254;71501;-91
2023/05/12 13:12:45;;;;;;;;;;;;;;;20.49;25.41;102135.10;107614;1254;124142;-91
2023/05/12 13:15:31;;;;;;;;;;;;;;;20.53;25.49;102130.31;107288;1258;60549;-89
2023/05/12 13:17:58;;;;;;;;;;;;;;;20.59;25.81;102135.71;107230;1254;123782;-89
2023/05/12 13:20:28;;;;;;;;;;;;;;;20.66;25.83;102130.95;107291;1254;68197;-89